Time;durP1;ratioP1;P1;durP2;ratioP2;P2;SDS_P1;SDS_P2;PMS_P1;PMS_P2;Temp;Humidity;BMP_temperature;BMP_pressure;BME280_temperature;BME280_humidity;BME280_pressure;Samples;Min_cycle;Max_cycle;Signal;HPM_P1;HPM_P2
2023/12/15 00:02:24;;;;;;;10.55;6.53;;;11.50;68.60;13.30;102496.00;;;;5027592;28;20662;-76
2023/12/15 00:04:53;;;;;;;10.13;6.70;;;11.50;68.60;13.30;102494.00;;;;5009240;28;20205;-76
2023/12/15 00:07:19;;;;;;;8.07;6.38;;;11.50;68.60;13.30;102486.00;;;;5008668;28;20208;-76
2023/12/15 00:09:46;;;;;;;10.95;6.93;;;11.50;68.60;13.30;102495.00;;;;5017923;28;20204;-75
2023/12/15 00:12:15;;;;;;;10.32;8.18;;;11.50;68.60;13.30;102503.00;;;;5014372;28;20257;-75
2023/12/15 00:14:42;;;;;;;10.88;7.63;;;11.50;68.70;13.30;102508.00;;;;5017918;28;20243;-76
2023/12/15 00:17:09;;;;;;;16.95;8.50;;;11.50;68.60;13.30;102505.00;;;;5016991;28;20343;-76
2023/12/15 00:19:36;;;;;;;12.52;8.27;;;11.50;68.70;13.30;102511.00;;;;5013220;28;20201;-76
2023/12/15 00:22:04;;;;;;;10.00;7.55;;;11.50;68.70;13.20;102514.00;;;;5008470;28;20659;-76
2023/12/15 00:24:31;;;;;;;12.38;8.02;;;11.50;68.70;13.20;102522.00;;;;5018144;28;20693;-76
2023/12/15 00:26:59;;;;;;;9.68;8.18;;;11.50;68.80;13.20;102511.00;;;;5017407;28;20188;-76
2023/12/15 00:29:26;;;;;;;12.50;8.50;;;11.50;68.80;13.30;102518.00;;;;5038170;28;20208;-76
2023/12/15 00:31:53;;;;;;;12.18;7.10;;;11.50;68.90;13.20;102524.00;;;;5047507;28;20227;-76
2023/12/15 00:34:20;;;;;;;11.45;7.30;;;11.50;68.90;13.30;102525.00;;;;5028372;28;20243;-76
2023/12/15 00:36:47;;;;;;;13.45;8.48;;;11.50;68.90;13.30;102521.00;;;;5018492;28;20196;-75
2023/12/15 00:39:15;;;;;;;15.13;8.35;;;11.50;68.90;13.30;102518.00;;;;5008842;28;20215;-76
2023/12/15 00:41:42;;;;;;;11.82;8.65;;;11.50;69.00;13.30;102524.00;;;;5022364;28;20208;-76
2023/12/15 00:44:09;;;;;;;11.95;8.55;;;11.50;68.90;13.30;102520.00;;;;5022465;28;20204;-76
2023/12/15 00:46:36;;;;;;;12.95;8.32;;;11.50;68.90;13.30;102530.00;;;;5016190;28;20192;-76
2023/12/15 00:49:03;;;;;;;14.15;9.05;;;11.50;69.00;13.30;102532.00;;;;5025087;28;20199;-76
2023/12/15 00:51:30;;;;;;;11.57;9.18;;;11.50;69.00;13.30;102535.00;;;;5008418;28;20676;-76
2023/12/15 00:53:57;;;;;;;17.98;8.40;;;11.50;69.10;13.30;102527.00;;;;5012220;28;20608;-76
2023/12/15 00:56:25;;;;;;;14.25;8.98;;;11.50;69.10;13.30;102526.00;;;;5025401;28;20220;-76
2023/12/15 00:58:53;;;;;;;16.35;9.45;;;11.50;69.10;13.30;102534.00;;;;5010414;28;20201;-76
2023/12/15 01:01:22;;;;;;;14.57;8.35;;;11.50;69.10;13.30;102538.00;;;;5008263;28;20688;-76
2023/12/15 01:03:49;;;;;;;16.13;8.93;;;11.50;69.10;13.30;102540.00;;;;5032670;22;20218;-76
2023/12/15 01:06:16;;;;;;;14.57;9.70;;;11.60;69.20;13.30;102545.00;;;;5011302;28;20557;-76
2023/12/15 01:08:43;;;;;;;11.57;8.93;;;11.60;69.20;13.40;102543.00;;;;5008078;28;20200;-76
2023/12/15 01:11:09;;;;;;;16.70;10.13;;;11.60;69.30;13.40;102551.00;;;;5010376;28;20204;-76
2023/12/15 01:13:38;;;;;;;14.85;9.95;;;11.60;69.20;13.30;102555.00;;;;5020697;28;20317;-76
2023/12/15 01:16:06;;;;;;;14.18;9.48;;;11.60;69.30;13.40;102564.00;;;;5037535;28;20689;-76
2023/12/15 01:18:33;;;;;;;15.35;9.80;;;11.60;69.30;13.40;102571.00;;;;5048027;28;20204;-76
2023/12/15 01:21:00;;;;;;;15.48;10.35;;;11.60;69.30;13.40;102561.00;;;;5014963;28;20666;-76
2023/12/15 01:23:27;;;;;;;17.15;10.05;;;11.60;69.30;13.40;102564.00;;;;5028511;28;20565;-76
2023/12/15 01:25:54;;;;;;;16.35;10.07;;;11.60;69.30;13.40;102562.00;;;;5031473;28;20773;-76
2023/12/15 01:28:21;;;;;;;17.05;10.55;;;11.60;69.30;13.40;102557.00;;;;5011546;28;20205;-76
2023/12/15 01:30:49;;;;;;;13.13;9.63;;;11.60;69.30;13.40;102554.00;;;;5018810;28;20673;-76
2023/12/15 01:33:16;;;;;;;15.50;10.52;;;11.70;69.40;13.40;102556.00;;;;5028849;28;20225;-76
2023/12/15 01:35:43;;;;;;;17.67;10.10;;;11.70;69.40;13.40;102561.00;;;;5041932;28;20200;-76
2023/12/15 01:38:10;;;;;;;17.50;10.27;;;11.70;69.30;13.40;102570.00;;;;5012951;28;20204;-76
2023/12/15 01:40:37;;;;;;;14.32;9.95;;;11.60;69.30;13.50;102567.00;;;;5016911;28;20571;-76
2023/12/15 01:43:04;;;;;;;14.30;10.07;;;11.70;69.40;13.50;102573.00;;;;5029064;28;20196;-76
2023/12/15 01:45:31;;;;;;;16.92;11.02;;;11.70;69.40;13.50;102573.00;;;;5042528;28;20665;-75
2023/12/15 01:47:59;;;;;;;18.30;11.52;;;11.70;69.40;13.50;102581.00;;;;5020263;28;20658;-78
2023/12/15 01:50:26;;;;;;;15.52;10.40;;;11.70;69.40;13.50;102573.00;;;;5030404;28;20200;-78
2023/12/15 01:52:53;;;;;;;16.27;10.30;;;11.70;69.40;13.50;102574.00;;;;5030058;28;20235;-78
2023/12/15 01:55:20;;;;;;;16.52;10.90;;;11.70;69.40;13.50;102579.00;;;;5034833;28;20228;-78
2023/12/15 01:57:47;;;;;;;21.33;11.18;;;11.70;69.50;13.50;102581.00;;;;5011037;28;20203;-78
2023/12/15 02:00:15;;;;;;;16.17;10.35;;;11.70;69.50;13.50;102588.00;;;;5010682;28;20224;-78
2023/12/15 02:02:42;;;;;;;15.93;10.88;;;11.70;69.40;13.50;102590.00;;;;5010888;28;20197;-78
2023/12/15 02:05:10;;;;;;;18.13;11.60;;;11.70;69.40;13.50;102594.00;;;;5015757;28;20236;-75
2023/12/15 02:07:37;;;;;;;22.00;11.95;;;11.70;69.40;13.50;102613.00;;;;5016341;28;20209;-77
2023/12/15 02:10:05;;;;;;;16.70;10.18;;;11.70;69.50;13.50;102608.00;;;;5008153;28;20216;-78
2023/12/15 02:12:32;;;;;;;19.65;10.68;;;11.80;69.50;13.50;102614.00;;;;5010816;28;20217;-77
2023/12/15 02:14:59;;;;;;;15.30;10.63;;;11.70;69.50;13.50;102620.00;;;;5024329;28;20550;-78
2023/12/15 02:17:26;;;;;;;23.00;11.10;;;11.80;69.50;13.50;102617.00;;;;5013856;28;20196;-78
2023/12/15 02:19:53;;;;;;;17.17;10.82;;;11.80;70.30;13.50;102624.00;;;;5010277;28;20201;-78
2023/12/15 02:22:26;;;;;;;18.88;11.50;;;11.80;69.60;13.50;102633.00;;;;5008222;28;20599;-78
2023/12/15 02:24:53;;;;;;;20.60;12.25;;;11.70;69.60;13.50;102628.00;;;;5005832;28;20193;-78
2023/12/15 02:27:20;;;;;;;19.52;11.55;;;11.80;69.60;13.50;102630.00;;;;5007911;28;20233;-78
2023/12/15 02:29:47;;;;;;;20.55;12.80;;;11.80;69.60;13.50;102642.00;;;;5010425;28;20201;-78
2023/12/15 02:32:14;;;;;;;17.27;11.57;;;11.80;69.70;13.50;102640.00;;;;5009809;28;20201;-78
2023/12/15 02:34:41;;;;;;;26.15;12.63;;;11.80;69.70;13.60;102635.00;;;;5011538;28;20677;-78
2023/12/15 02:37:08;;;;;;;18.70;12.55;;;11.80;69.70;13.60;102646.00;;;;5009417;28;20208;-78
2023/12/15 02:39:39;;;;;;;19.65;11.30;;;11.80;69.80;13.50;102650.00;;;;5003085;28;20202;-78
2023/12/15 02:42:06;;;;;;;18.23;11.82;;;11.80;69.70;13.60;102655.00;;;;5005712;28;20212;-78
2023/12/15 02:44:33;;;;;;;19.73;12.07;;;11.80;69.70;13.60;102651.00;;;;5002771;28;20201;-78
2023/12/15 02:47:00;;;;;;;19.30;12.05;;;11.80;69.70;13.60;102655.00;;;;5006705;28;20205;-78
2023/12/15 02:49:27;;;;;;;20.25;11.63;;;11.80;69.70;13.60;102662.00;;;;5009743;28;20193;-78
2023/12/15 02:51:54;;;;;;;20.23;11.95;;;11.80;69.80;13.60;102665.00;;;;5009231;28;20204;-78
2023/12/15 02:54:21;;;;;;;24.50;12.57;;;11.90;69.80;13.60;102665.00;;;;5008766;28;20220;-75
2023/12/15 02:56:49;;;;;;;22.13;11.65;;;11.80;69.80;13.60;102669.00;;;;5011948;28;20253;-75
2023/12/15 02:59:16;;;;;;;20.55;10.57;;;11.80;69.80;13.70;102673.00;;;;5009054;28;20201;-78
2023/12/15 03:01:43;;;;;;;21.27;11.85;;;11.80;69.80;13.70;102677.00;;;;5009174;28;20569;-78
2023/12/15 03:04:10;;;;;;;18.40;11.90;;;11.90;69.90;13.70;102683.00;;;;5019170;28;20238;-78
2023/12/15 03:06:37;;;;;;;18.33;11.43;;;11.90;69.90;13.70;102688.00;;;;5008584;28;20208;-78
2023/12/15 03:09:04;;;;;;;23.05;12.55;;;11.90;69.90;13.70;102677.00;;;;5009967;28;20650;-77
2023/12/15 03:11:31;;;;;;;20.70;12.30;;;11.90;69.90;13.70;102684.00;;;;5007737;28;20193;-78
2023/12/15 03:13:59;;;;;;;20.85;12.77;;;11.90;69.90;13.70;102695.00;;;;5007208;28;20778;-78
2023/12/15 03:16:26;;;;;;;20.63;11.60;;;11.90;69.90;13.80;102699.00;;;;5009597;28;20678;-78
2023/12/15 03:18:53;;;;;;;18.30;13.02;;;12.00;70.00;13.80;102698.00;;;;5008867;28;20189;-78
2023/12/15 03:21:20;;;;;;;19.23;11.88;;;12.00;69.90;13.80;102706.00;;;;5009850;28;20581;-78
2023/12/15 03:23:49;;;;;;;17.05;12.07;;;11.90;69.80;13.80;102698.00;;;;5008199;28;20991;-78
2023/12/15 03:26:16;;;;;;;21.38;12.18;;;12.00;69.90;13.80;102707.00;;;;5008769;28;20196;-78
2023/12/15 03:28:43;;;;;;;21.48;11.88;;;12.00;69.80;13.80;102701.00;;;;5015779;28;20221;-78
2023/12/15 03:31:12;;;;;;;22.42;12.07;;;12.00;69.80;13.80;102713.00;;;;5011541;28;20201;-78
2023/12/15 03:33:39;;;;;;;20.23;11.63;;;12.00;69.90;13.80;102714.00;;;;5008753;28;20231;-78
2023/12/15 03:36:07;;;;;;;21.92;12.57;;;12.00;69.80;13.80;102719.00;;;;4998621;28;20686;-78
2023/12/15 03:38:35;;;;;;;14.88;11.35;;;12.00;69.90;13.80;102715.00;;;;5009163;28;20197;-78
2023/12/15 03:41:02;;;;;;;17.77;11.80;;;12.00;69.90;13.80;102710.00;;;;5008057;28;20193;-78
2023/12/15 03:43:29;;;;;;;18.73;12.30;;;12.00;69.90;13.80;102724.00;;;;5006617;28;20220;-78
2023/12/15 03:45:56;;;;;;;18.58;11.73;;;12.00;69.90;13.80;102726.00;;;;5008010;28;20197;-78
2023/12/15 03:48:25;;;;;;;17.02;11.80;;;12.00;69.90;13.80;102724.00;;;;5014278;28;20535;-78
2023/12/15 03:50:51;;;;;;;17.90;12.25;;;12.00;69.90;13.80;102725.00;;;;5017680;28;20212;-78
2023/12/15 03:53:18;;;;;;;17.02;11.07;;;12.00;69.90;13.80;102716.00;;;;5002661;28;20694;-78
2023/12/15 03:55:45;;;;;;;20.48;12.57;;;12.00;69.80;13.80;102717.00;;;;5006509;28;20209;-78
2023/12/15 03:58:12;;;;;;;16.38;11.63;;;12.10;69.90;13.80;102722.00;;;;5007499;28;20199;-78
2023/12/15 04:00:39;;;;;;;16.80;11.27;;;12.00;69.80;13.90;102721.00;;;;5006804;28;20699;-78
2023/12/15 04:03:06;;;;;;;21.83;11.95;;;12.10;69.90;13.80;102728.00;;;;5007395;28;20200;-78
2023/12/15 04:05:34;;;;;;;17.23;11.70;;;12.00;69.80;13.80;102722.00;;;;5008099;28;20224;-78
2023/12/15 04:08:01;;;;;;;16.80;11.43;;;12.10;70.00;13.90;102738.00;;;;5008323;28;20201;-78
2023/12/15 04:10:28;;;;;;;16.73;11.43;;;12.10;69.90;13.90;102742.00;;;;4995049;28;20213;-78
2023/12/15 04:12:56;;;;;;;14.00;10.63;;;12.10;69.90;13.90;102745.00;;;;5002534;28;20228;-77
2023/12/15 04:15:23;;;;;;;18.30;11.38;;;12.10;69.90;13.80;102738.00;;;;5023102;28;20294;-78
2023/12/15 04:17:50;;;;;;;18.33;10.95;;;12.10;69.80;13.80;102734.00;;;;5006641;28;20691;-78
2023/12/15 04:20:17;;;;;;;17.70;10.63;;;12.10;69.70;13.80;102737.00;;;;5008536;28;20204;-78
2023/12/15 04:22:46;;;;;;;16.70;11.88;;;12.10;69.80;13.80;102734.00;;;;5006654;28;20201;-78
2023/12/15 04:25:13;;;;;;;24.63;12.30;;;12.00;69.70;13.80;102743.00;;;;5007385;28;20208;-78
2023/12/15 04:27:41;;;;;;;15.63;10.98;;;12.00;69.70;13.70;102749.00;;;;5002066;28;20667;-78
2023/12/15 04:30:09;;;;;;;16.15;10.98;;;12.00;69.60;13.70;102761.00;;;;5008267;28;20224;-78
2023/12/15 04:32:36;;;;;;;15.35;10.63;;;12.00;69.70;13.80;102750.00;;;;5015784;28;20193;-78
2023/12/15 04:35:04;;;;;;;16.17;10.68;;;12.00;69.70;13.80;102756.00;;;;5010704;28;20721;-78
2023/12/15 04:37:30;;;;;;;15.68;10.43;;;12.00;70.40;13.80;102765.00;;;;5008328;28;20515;-78
2023/12/15 04:39:59;;;;;;;16.25;10.60;;;12.00;69.80;13.70;102759.00;;;;5007644;28;20547;-78
2023/12/15 04:42:27;;;;;;;16.75;10.60;;;12.00;69.80;13.80;102775.00;;;;5010522;28;20193;-77
2023/12/15 04:44:55;;;;;;;17.55;10.88;;;12.00;69.80;13.80;102768.00;;;;5005373;28;20201;-78
2023/12/15 04:47:22;;;;;;;15.60;10.80;;;12.00;69.80;13.80;102774.00;;;;5012117;28;20706;-78
2023/12/15 04:49:48;;;;;;;16.67;10.32;;;12.00;69.80;13.80;102762.00;;;;5011361;28;20779;-77
2023/12/15 04:52:15;;;;;;;18.83;11.13;;;12.00;69.80;13.80;102761.00;;;;5013630;28;20196;-78
2023/12/15 04:54:42;;;;;;;17.55;10.30;;;12.00;69.80;13.80;102762.00;;;;5010037;28;20224;-78
2023/12/15 04:57:11;;;;;;;17.73;11.20;;;12.00;69.80;13.70;102778.00;;;;5011322;28;20217;-78
2023/12/15 04:59:39;;;;;;;16.83;11.07;;;12.00;69.90;13.70;102787.00;;;;5011760;28;20197;-75
2023/12/15 05:02:07;;;;;;;14.60;10.98;;;11.90;69.90;13.80;102784.00;;;;5003867;28;20212;-78
2023/12/15 05:04:34;;;;;;;14.43;10.45;;;11.90;69.90;13.80;102789.00;;;;5010032;28;20225;-78
2023/12/15 05:07:03;;;;;;;12.88;10.15;;;12.00;69.90;13.80;102787.00;;;;5011470;28;20201;-78
2023/12/15 05:09:30;;;;;;;13.40;10.65;;;11.90;69.90;13.80;102782.00;;;;5011444;28;20199;-78
2023/12/15 05:11:57;;;;;;;15.50;10.52;;;12.00;69.90;13.80;102790.00;;;;5013150;28;20197;-78
2023/12/15 05:14:25;;;;;;;12.55;9.55;;;11.90;69.80;13.80;102804.00;;;;5010341;28;20248;-78
2023/12/15 05:16:52;;;;;;;13.52;9.40;;;12.00;69.90;13.80;102797.00;;;;5009155;28;20212;-78
2023/12/15 05:19:19;;;;;;;14.00;9.82;;;12.00;69.90;13.80;102795.00;;;;4991545;28;20228;-78
2023/12/15 05:21:46;;;;;;;14.15;9.77;;;12.00;69.90;13.80;102804.00;;;;5012096;28;20208;-78
2023/12/15 05:24:15;;;;;;;16.27;10.88;;;12.00;69.90;13.80;102814.00;;;;5009288;28;20205;-78
2023/12/15 05:26:42;;;;;;;15.57;9.32;;;12.00;69.90;13.80;102819.00;;;;5009677;28;20204;-78
2023/12/15 05:29:10;;;;;;;13.88;9.73;;;12.00;69.80;13.80;102827.00;;;;5011265;28;20647;-78
2023/12/15 05:31:39;;;;;;;13.73;9.73;;;12.00;69.90;13.80;102826.00;;;;5013693;28;20236;-78
2023/12/15 05:34:06;;;;;;;15.65;9.63;;;12.00;69.90;13.80;102826.00;;;;5008713;28;20216;-77
2023/12/15 05:36:33;;;;;;;14.68;10.27;;;12.00;69.90;13.80;102835.00;;;;5010328;28;20251;-77
2023/12/15 05:39:00;;;;;;;12.52;9.45;;;11.90;69.80;13.80;102837.00;;;;5009898;28;20562;-77
2023/12/15 05:41:27;;;;;;;16.08;10.48;;;12.00;69.80;13.80;102837.00;;;;5010633;28;20566;-77
2023/12/15 05:43:54;;;;;;;16.77;10.50;;;11.90;69.80;13.80;102822.00;;;;5009424;28;20248;-76
2023/12/15 05:46:21;;;;;;;11.93;9.10;;;12.00;69.80;13.80;102826.00;;;;5011220;28;20200;-77
2023/12/15 05:48:50;;;;;;;13.27;9.73;;;11.90;69.80;13.80;102832.00;;;;5010147;28;20209;-77
2023/12/15 05:51:17;;;;;;;14.27;9.55;;;12.00;69.90;13.80;102826.00;;;;5011390;28;20194;-77
2023/12/15 05:53:44;;;;;;;10.88;8.18;;;11.90;69.80;13.80;102833.00;;;;5009535;28;20304;-77
2023/12/15 05:56:11;;;;;;;14.45;9.15;;;12.00;69.90;13.80;102827.00;;;;5009184;28;20300;-77
2023/12/15 05:58:38;;;;;;;14.30;9.70;;;12.00;69.90;13.70;102836.00;;;;5008485;28;20205;-77
2023/12/15 06:01:05;;;;;;;14.32;9.50;;;11.90;69.80;13.70;102843.00;;;;5009570;28;20220;-77
2023/12/15 06:03:32;;;;;;;11.68;8.73;;;11.90;69.90;13.70;102837.00;;;;5000882;28;20212;-77
2023/12/15 06:06:00;;;;;;;14.07;9.45;;;11.90;69.90;13.70;102854.00;;;;5007314;28;21061;-77
2023/12/15 06:08:27;;;;;;;15.35;9.80;;;11.90;69.90;13.80;102857.00;;;;5010016;28;20189;-77
2023/12/15 06:10:54;;;;;;;17.27;9.55;;;11.90;70.00;13.80;102854.00;;;;5005181;28;20201;-77
2023/12/15 06:13:22;;;;;;;13.70;8.95;;;11.90;70.00;13.80;102852.00;;;;5010659;28;20235;-77
2023/12/15 06:15:49;;;;;;;13.05;9.10;;;12.00;70.00;13.80;102857.00;;;;5008755;28;20204;-77
2023/12/15 06:18:16;;;;;;;13.10;9.15;;;12.00;70.00;13.80;102864.00;;;;5008849;28;20197;-77
2023/12/15 06:20:43;;;;;;;12.57;9.55;;;11.90;69.90;13.70;102859.00;;;;5008607;28;20602;-77
2023/12/15 06:23:11;;;;;;;12.95;8.30;;;12.00;70.00;13.70;102861.00;;;;5028187;28;20238;-77
2023/12/15 06:25:38;;;;;;;15.85;9.63;;;11.90;69.90;13.80;102875.00;;;;5005999;28;20193;-77
2023/12/15 06:28:08;;;;;;;12.45;8.95;;;12.00;70.00;13.70;102881.00;;;;5009837;28;20201;-77
2023/12/15 06:30:36;;;;;;;11.30;8.77;;;12.00;70.00;13.80;102875.00;;;;5008472;28;20232;-77
2023/12/15 06:33:03;;;;;;;14.77;8.70;;;11.90;70.00;13.80;102881.00;;;;5008472;28;20252;-77
2023/12/15 06:35:30;;;;;;;11.95;8.88;;;11.90;70.00;13.80;102877.00;;;;5002617;28;20228;-77
2023/12/15 06:37:57;;;;;;;13.65;9.00;;;12.00;70.00;13.80;102879.00;;;;5007394;28;20204;-78
2023/12/15 06:40:25;;;;;;;12.15;8.48;;;12.00;70.70;13.80;102874.00;;;;5009462;28;20578;-78
2023/12/15 06:42:52;;;;;;;11.90;8.75;;;12.00;70.00;13.80;102875.00;;;;5006361;28;20567;-77
2023/12/15 06:45:19;;;;;;;12.02;8.38;;;11.90;70.00;13.80;102883.00;;;;5013889;28;20210;-77
2023/12/15 06:47:46;;;;;;;15.52;9.55;;;11.90;70.00;13.80;102895.00;;;;5025743;28;20577;-76
2023/12/15 06:50:13;;;;;;;14.82;9.18;;;12.00;70.10;13.80;102898.00;;;;5028835;28;20200;-76
2023/12/15 06:52:40;;;;;;;14.75;9.48;;;12.00;70.10;13.70;102906.00;;;;5024219;28;20210;-76
2023/12/15 06:55:08;;;;;;;11.10;8.23;;;12.00;70.10;13.70;102911.00;;;;5008545;28;20232;-75
2023/12/15 06:57:36;;;;;;;12.13;8.43;;;11.90;70.00;13.80;102916.00;;;;5017195;28;20204;-76
2023/12/15 07:00:06;;;;;;;12.95;8.52;;;12.00;70.10;13.80;102920.00;;;;5016119;28;20200;-77
2023/12/15 07:02:35;;;;;;;11.88;8.93;;;12.00;70.10;13.80;102931.00;;;;5013763;28;20944;-76
2023/12/15 07:05:02;;;;;;;12.13;8.70;;;12.00;70.10;13.80;102924.00;;;;5012929;28;20275;-76
2023/12/15 07:07:29;;;;;;;12.45;7.95;;;12.00;70.10;13.80;102926.00;;;;5009515;28;20215;-76
2023/12/15 07:09:56;;;;;;;14.77;8.73;;;12.00;70.10;13.80;102918.00;;;;5008366;28;20219;-76
2023/12/15 07:12:23;;;;;;;11.95;8.18;;;12.00;70.10;13.80;102925.00;;;;5007325;28;20853;-76
2023/12/15 07:14:52;;;;;;;10.35;7.13;;;12.00;70.10;13.80;102932.00;;;;5007851;28;20225;-76
2023/12/15 07:17:19;;;;;;;11.45;7.65;;;11.90;70.00;13.80;102930.00;;;;5009521;28;20263;-76
2023/12/15 07:19:46;;;;;;;11.88;8.75;;;12.00;70.10;13.80;102918.00;;;;5008581;28;21068;-76
2023/12/15 07:22:14;;;;;;;12.18;8.07;;;12.00;70.10;13.80;102920.00;;;;5009135;28;20211;-75
2023/12/15 07:24:41;;;;;;;15.70;8.95;;;12.00;70.10;13.80;102936.00;;;;5009047;28;20197;-76
2023/12/15 07:27:08;;;;;;;11.32;8.07;;;12.00;70.10;13.80;102948.00;;;;5008991;28;20197;-76
2023/12/15 07:29:35;;;;;;;14.70;8.80;;;12.00;70.00;13.80;102945.00;;;;5009482;28;20209;-76
2023/12/15 07:32:04;;;;;;;13.48;8.65;;;12.00;70.00;13.80;102943.00;;;;5008260;28;20189;-76
2023/12/15 07:34:31;;;;;;;11.32;8.00;;;12.00;70.00;13.80;102934.00;;;;4995353;28;20540;-76
2023/12/15 07:36:58;;;;;;;13.25;8.55;;;12.00;70.00;13.80;102950.00;;;;4989550;28;20202;-76
2023/12/15 07:39:25;;;;;;;11.88;7.90;;;12.00;70.10;13.80;102956.00;;;;4989599;28;20668;-76
2023/12/15 07:41:52;;;;;;;12.32;7.60;;;11.90;70.00;13.80;102966.00;;;;4993168;28;20208;-76
2023/12/15 07:44:19;;;;;;;12.15;8.40;;;12.00;70.10;13.80;102967.00;;;;5009460;28;20220;-76
2023/12/15 07:46:46;;;;;;;13.57;8.38;;;12.00;70.10;13.80;102966.00;;;;5008218;28;20216;-76
2023/12/15 07:49:14;;;;;;;12.57;8.23;;;12.00;70.10;13.80;102977.00;;;;5008949;28;20193;-76
2023/12/15 07:51:41;;;;;;;12.38;8.60;;;12.00;70.10;13.80;102985.00;;;;4996004;28;20259;-76
2023/12/15 07:54:08;;;;;;;12.43;8.20;;;12.00;70.20;13.80;102994.00;;;;5008102;28;20255;-76
2023/12/15 07:56:35;;;;;;;11.77;7.80;;;12.00;70.20;13.80;102991.00;;;;5008522;28;20224;-76
2023/12/15 07:59:03;;;;;;;12.98;8.30;;;12.00;70.20;13.80;102992.00;;;;5009048;28;20212;-76
2023/12/15 08:01:30;;;;;;;11.38;7.43;;;12.00;70.20;13.90;102997.00;;;;5003399;28;20201;-76
2023/12/15 08:03:57;;;;;;;12.23;7.70;;;12.00;70.20;13.90;102999.00;;;;4993110;28;20206;-76
2023/12/15 08:06:25;;;;;;;13.48;8.45;;;12.00;70.20;13.90;103007.00;;;;4988359;28;20204;-76
2023/12/15 08:08:53;;;;;;;12.80;7.35;;;12.00;70.20;13.90;103010.00;;;;5005548;28;20216;-76
2023/12/15 08:11:22;;;;;;;13.95;8.30;;;12.00;70.30;13.90;103007.00;;;;5008005;28;20203;-77
2023/12/15 08:13:49;;;;;;;13.48;7.85;;;12.00;70.30;13.90;103009.00;;;;5008073;28;20931;-76
2023/12/15 08:16:16;;;;;;;11.88;7.05;;;12.10;70.30;13.90;103015.00;;;;5008939;28;20232;-76
2023/12/15 08:18:43;;;;;;;14.45;7.47;;;12.10;70.30;13.90;103013.00;;;;5007526;28;20679;-76
2023/12/15 08:21:11;;;;;;;9.85;6.32;;;12.10;70.40;13.90;103021.00;;;;5006897;28;20196;-76
2023/12/15 08:23:39;;;;;;;13.15;8.18;;;12.10;70.40;13.90;103026.00;;;;5007345;28;20562;-76
2023/12/15 08:26:07;;;;;;;9.73;6.68;;;12.10;70.40;14.00;103032.00;;;;4998911;28;20593;-76
2023/12/15 08:28:36;;;;;;;12.25;6.88;;;12.10;70.50;14.00;103050.00;;;;5007779;28;20201;-76
2023/12/15 08:31:03;;;;;;;12.30;7.30;;;12.20;70.40;14.00;103049.00;;;;5008846;28;20286;-76
2023/12/15 08:33:30;;;;;;;10.18;6.88;;;12.20;70.40;14.00;103062.00;;;;5007944;28;20204;-76
2023/12/15 08:35:57;;;;;;;15.80;7.25;;;12.20;70.40;14.00;103060.00;;;;5006760;28;20730;-76
2023/12/15 08:38:24;;;;;;;9.48;6.28;;;12.20;70.50;14.00;103058.00;;;;5007854;28;20286;-76
2023/12/15 08:40:54;;;;;;;10.40;6.50;;;12.20;70.50;14.10;103055.00;;;;5006834;28;20211;-76
2023/12/15 08:43:21;;;;;;;9.60;6.18;;;12.20;70.50;14.10;103054.00;;;;4988001;28;20292;-76
2023/12/15 08:45:48;;;;;;;12.93;6.35;;;12.20;70.50;14.10;103064.00;;;;4995316;28;20205;-76
2023/12/15 08:48:15;;;;;;;8.27;6.55;;;12.30;70.60;14.10;103068.00;;;;5007372;28;20208;-76
2023/12/15 08:50:42;;;;;;;9.45;5.90;;;12.30;70.60;14.10;103071.00;;;;5007713;28;20196;-76
2023/12/15 08:53:09;;;;;;;8.00;5.75;;;12.30;70.50;14.10;103066.00;;;;5007725;28;21043;-76
2023/12/15 08:55:35;;;;;;;10.55;6.25;;;12.30;70.60;14.20;103068.00;;;;5007157;28;20236;-77
2023/12/15 08:58:04;;;;;;;11.30;6.68;;;12.40;70.60;14.20;103072.00;;;;5005695;28;20850;-76
2023/12/15 09:00:31;;;;;;;14.27;6.60;;;12.40;71.30;14.20;103074.00;;;;4995292;28;20280;-77
2023/12/15 09:02:58;;;;;;;12.35;6.57;;;12.40;70.60;14.30;103076.00;;;;5007270;28;20221;-76
2023/12/15 09:05:25;;;;;;;12.40;6.57;;;12.40;70.60;14.30;103090.00;;;;5007814;28;20240;-77
2023/12/15 09:07:53;;;;;;;13.02;6.20;;;12.40;70.60;14.30;103089.00;;;;5007340;28;20758;-76
2023/12/15 09:10:22;;;;;;;11.27;6.05;;;12.50;70.60;14.40;103094.00;;;;5007426;28;20209;-76
2023/12/15 09:12:49;;;;;;;12.10;6.30;;;12.50;70.60;14.40;103096.00;;;;5007458;28;20231;-76
2023/12/15 09:15:18;;;;;;;9.68;6.15;;;12.50;70.60;14.40;103105.00;;;;5005457;28;20237;-76
2023/12/15 09:17:46;;;;;;;10.35;5.63;;;12.50;70.60;14.40;103103.00;;;;5006843;28;20664;-76
2023/12/15 09:20:14;;;;;;;14.02;5.85;;;12.60;70.70;14.50;103110.00;;;;5007449;28;20208;-77
2023/12/15 09:22:41;;;;;;;8.25;5.80;;;12.60;70.70;14.50;103121.00;;;;5006996;28;20200;-77
2023/12/15 09:25:08;;;;;;;8.80;6.07;;;12.60;70.70;14.50;103123.00;;;;5006599;28;20197;-77
2023/12/15 09:27:35;;;;;;;10.40;5.65;;;12.60;70.60;14.60;103130.00;;;;4987733;28;20583;-77
2023/12/15 09:30:03;;;;;;;12.20;6.63;;;12.70;70.70;14.60;103132.00;;;;4990892;28;20204;-77
2023/12/15 09:32:31;;;;;;;11.40;5.30;;;12.70;70.70;14.60;103140.00;;;;5004972;28;20205;-77
2023/12/15 09:34:58;;;;;;;9.85;5.28;;;12.70;70.70;14.70;103146.00;;;;5008710;28;20223;-77
2023/12/15 09:37:25;;;;;;;10.07;5.78;;;12.80;70.80;14.70;103167.00;;;;5010671;28;20200;-77
2023/12/15 09:39:52;;;;;;;13.48;6.03;;;12.80;70.80;14.80;103164.00;;;;5010820;28;20674;-77
2023/12/15 09:42:19;;;;;;;9.52;5.15;;;12.90;70.80;14.80;103163.00;;;;5010987;28;20205;-77
2023/12/15 09:44:46;;;;;;;8.40;5.07;;;12.90;70.70;14.80;103164.00;;;;5010337;28;20204;-77
2023/12/15 09:47:13;;;;;;;11.70;5.43;;;12.90;70.70;14.90;103169.00;;;;5010403;28;20212;-77
2023/12/15 09:49:47;;;;;;;8.20;4.80;;;12.90;70.70;14.90;103171.00;;;;5003071;28;20216;-77
2023/12/15 09:52:16;;;;;;;8.90;5.53;;;13.00;70.80;14.90;103182.00;;;;4991446;28;20204;-77
2023/12/15 09:54:43;;;;;;;10.63;5.00;;;13.10;70.80;15.00;103184.00;;;;5003921;28;20201;-77
2023/12/15 09:57:13;;;;;;;9.90;5.43;;;13.10;70.70;15.00;103187.00;;;;5009639;28;20221;-77
2023/12/15 09:59:42;;;;;;;6.95;5.05;;;13.10;70.60;15.00;103191.00;;;;5009889;28;20992;-77
2023/12/15 10:02:09;;;;;;;9.27;5.53;;;13.20;70.60;15.10;103201.00;;;;5010070;28;20280;-77
2023/12/15 10:04:36;;;;;;;14.52;5.20;;;13.20;70.60;15.10;103205.00;;;;5010095;28;20229;-77
2023/12/15 10:07:05;;;;;;;12.85;5.15;;;13.20;70.50;15.10;103206.00;;;;4999845;28;20288;-77
2023/12/15 10:09:32;;;;;;;10.40;5.93;;;13.20;70.50;15.10;103219.00;;;;4999695;28;20204;-77
2023/12/15 10:12:00;;;;;;;9.63;5.13;;;13.30;70.50;15.20;103221.00;;;;5010025;28;20267;-77
2023/12/15 10:14:27;;;;;;;10.82;4.53;;;13.30;70.40;15.20;103225.00;;;;5009854;28;20221;-77
2023/12/15 10:16:54;;;;;;;8.60;4.90;;;13.30;70.40;15.20;103234.00;;;;5009548;28;20228;-77
2023/12/15 10:19:25;;;;;;;7.05;4.43;;;13.30;70.40;15.20;103240.00;;;;5009417;28;20201;-75
2023/12/15 10:21:52;;;;;;;6.75;5.00;;;13.40;70.50;15.30;103245.00;;;;5009543;28;20228;-76
2023/12/15 10:24:23;;;;;;;6.40;4.78;;;13.40;70.40;15.30;103238.00;;;;5009267;28;20235;-76
2023/12/15 10:26:51;;;;;;;10.82;4.90;;;13.40;70.40;15.40;103241.00;;;;5009626;28;20719;-77
2023/12/15 10:29:20;;;;;;;7.82;4.20;;;13.50;70.40;15.40;103245.00;;;;5009627;28;20197;-75
2023/12/15 10:31:49;;;;;;;7.45;4.18;;;13.50;70.40;15.40;103254.00;;;;5009873;28;20197;-75
2023/12/15 10:34:17;;;;;;;8.95;4.88;;;13.50;70.20;15.40;103255.00;;;;5010461;28;20205;-75
2023/12/15 10:36:46;;;;;;;5.63;3.75;;;13.60;70.20;15.40;103252.00;;;;5010426;28;20235;-75
2023/12/15 10:39:14;;;;;;;8.75;4.20;;;13.60;70.10;15.50;103254.00;;;;5009880;28;20709;-75